Ns Clipper — A8GW6 — position and weather

sailwx.info

Track history (hours):
 
Tides and Currents Weather Stations Pressure Air Temp Water Temp Dewpoint Dewpoint Depression Visibility Wind Speed Wind Dir Waves Ship Positions

Ns Clipper

Last reported at 2017-Sep-17 05:04 UTC. Time now 2017-Sep-19 13:47 UTC.
Position N 01°23' E 103°16'.

Length 244 m; draft 8.5 m.

Type: Ship. MMSI: 636012661.

Date/timePositionNaut miles runAvg speedWind from/ knotsBaromVisibWave heightAir tempDewpointWater temp
2017-Sep-17 05:04N 01°23' E 103°16'514.2
2017-Sep-17 04:42N 01°19' E 103°20'313.8
2017-Sep-17 04:29N 01°17' E 103°22'713.3
2017-Sep-17 03:57N 01°14' E 103°28'612.8
2017-Sep-17 03:30N 01°12' E 103°33'612.4
2017-Sep-17 03:00N 01°11' E 103°39'611.8
2017-Sep-17 02:30N 01°09' E 103°45'713.9
2017-Sep-17 02:00N 01°12' E 103°51'510.4
2017-Sep-17 01:30N 01°15' E 103°55'1 0.0
2017-Sep-16 09:40N 01°16' E 103°55'1 3.8
2017-Sep-16 09:31N 01°15' E 103°55'3 4.9
2017-Sep-16 08:59N 01°15' E 103°58'3 3.9
2017-Sep-16 08:20N 01°16' E 104°00'1 3.8
2017-Sep-16 07:58N 01°16' E 104°01'3 6.6
2017-Sep-16 07:28N 01°16' E 104°05'  
Track history (hours):
 
Tides and Currents Weather Stations Pressure Air Temp Water Temp Dewpoint Dewpoint Depression Visibility Wind Speed Wind Dir Waves Ship Positions

Ns Clipper

Last reported at 2017-Sep-17 05:04 UTC. Time now 2017-Sep-19 13:47 UTC.
Position N 01°23' E 103°16'.

Length 244 m; draft 8.5 m.

Type: Ship. MMSI: 636012661.

Date/timePositionNaut miles runAvg speedWind from/ knotsBaromVisibWave heightAir tempDewpointWater temp
2017-Sep-17 05:04N 01°23' E 103°16'514.2
2017-Sep-17 04:42N 01°19' E 103°20'313.8
2017-Sep-17 04:29N 01°17' E 103°22'713.3
2017-Sep-17 03:57N 01°14' E 103°28'612.8
2017-Sep-17 03:30N 01°12' E 103°33'612.4
2017-Sep-17 03:00N 01°11' E 103°39'611.8
2017-Sep-17 02:30N 01°09' E 103°45'713.9
2017-Sep-17 02:00N 01°12' E 103°51'510.4
2017-Sep-17 01:30N 01°15' E 103°55'1 0.0
2017-Sep-16 09:40N 01°16' E 103°55'1 3.8
2017-Sep-16 09:31N 01°15' E 103°55'3 4.9
2017-Sep-16 08:59N 01°15' E 103°58'3 3.9
2017-Sep-16 08:20N 01°16' E 104°00'1 3.8
2017-Sep-16 07:58N 01°16' E 104°01'3 6.6
2017-Sep-16 07:28N 01°16' E 104°05'  

Dump ship's entire track history